• Join FlightAware (Why Join?)
  • Login
  • US Flag 
05:23PM EDT


 

Airport Tracker/Info


-or-


 

Live Flight TrackerFlight Track Log ✈ DAL1079 ✈ 13-Nov-2013 ✈ KATL - KMHT

Flight Track Log - Related Links

Times and Time Zones

All times are in EST time to prevent confusion due to time zone crossing. See the DAL1079 flight status page for this flight to view local times or setup timezone preferences in your user account.

Time Position Orientation Groundspeed Altitude Reporting Facility
EST Latitude Longitude Course Direction KTS MPH feet Rate Location/Type
07:12PM 33.6475 -84.4706 North 445 512 2,700  Level Atlanta Center
07:13PM 33.6833 -84.5667 294° West 276 318 6,700 2,580 Climbing Atlanta TRACON
07:15PM 33.8181 -84.5689 359° North 284 327 10,500 1,680 Climbing Atlanta Center
07:16PM 33.8747 -84.5042 43° Northeast 275 316 11,500 1,920 Climbing Atlanta Center
07:17PM 34.0511 -83.9480 11° North  Level Estimated
07:17PM 33.9525 -84.3944 49° Northeast 344 396 14,400  Level Atlanta Center
07:18PM 34.1337 -83.8514 North  Level Estimated
07:18PM 34.0442 -84.3647 15° North 352 405 17,000  Level Atlanta Center
07:19PM 34.1656 -84.3225 16° North 371 427 19,300 2,340 Climbing Atlanta Center
07:20PM 34.2719 -84.2878 15° North 401 461 21,700 2,100 Climbing Atlanta Center
07:21PM 34.3869 -84.2578 12° North 409 471 23,500 1,920 Climbing Atlanta Center
07:22PM 34.5036 -84.2303 11° North 422 486 25,600 1,860 Climbing Atlanta Center
07:23PM 34.6206 -84.2028 11° North 422 486 27,300 2,100 Climbing Atlanta Center
07:24PM 34.7333 -84.1803 North 421 484 29,800 1,980 Climbing Atlanta Center
07:25PM 34.8481 -84.1528 11° North 421 484 31,300 1,380 Climbing Atlanta Center
07:26PM 34.9650 -84.1250 11° North 421 484 32,600 840 Climbing Atlanta Center
07:27PM 35.0797 -84.0972 11° North 421 484 33,000 180 Climbing Atlanta Center
07:28PM 35.1925 -84.0567 16° North 415 478 33,000  Level Atlanta Center
07:29PM 35.3011 -84.0108 19° North 415 478 33,000  Level Atlanta Center
07:30PM 35.4075 -83.9650 19° North 410 472 33,000  Level Atlanta Center
07:31PM 35.5181 -83.9189 19° North 405 466 33,000  Level Atlanta Center
07:32PM 35.6242 -83.8728 19° North 405 466 33,000  Level Atlanta Center
07:33PM 35.7328 -83.8289 18° North 405 466 33,000  Level Atlanta Center
07:34PM 35.8411 -83.7825 19° North 405 466 33,000  Level Atlanta Center
07:35PM 35.9494 -83.7361 19° North 405 466 33,000  Level Atlanta Center
07:36PM 36.0578 -83.6869 20° North 405 466 33,000  Level Atlanta Center
07:37PM 36.1681 -83.6375 20° North 405 466 33,000  Level Atlanta Center
07:38PM 36.2764 -83.5906 19° North 410 472 33,000  Level Atlanta Center
07:39PM 36.3828 -83.5436 20° North 410 472 33,000  Level Atlanta Center
07:41PM 36.5303 -83.4764 20° North 414 476 33,000  Level Indianapolis Center
07:42PM 36.6400 -83.4272 20° North 415 478 33,000  Level Indianapolis Center
07:43PM 36.7672 -83.3694 20° North 414 476 33,000  Level Indianapolis Center
07:44PM 36.8767 -83.3194 20° North 414 476 33,000  Level Indianapolis Center
07:45PM 36.9858 -83.2700 20° North 412 474 33,000  Level Indianapolis Center
07:46PM 37.0942 -83.2181 21° North 410 472 33,000  Level Indianapolis Center
07:47PM 37.2036 -83.1672 20° North 416 479 33,000  Level Indianapolis Center
07:48PM 37.3047 -83.1019 27° Northeast 405 466 33,000  Level Indianapolis Center
07:49PM 37.3814 -82.9925 49° Northeast 412 474 33,000  Level Indianapolis Center
07:50PM 37.4558 -82.8842 49° Northeast 407 468 33,000  Level Indianapolis Center
07:51PM 37.5294 -82.7742 50° Northeast 411 473 33,000  Level Indianapolis Center
07:52PM 37.6156 -82.6464 50° Northeast 408 470 33,000  Level Indianapolis Center
07:53PM 37.6892 -82.5353 50° Northeast 410 472 33,000  Level Indianapolis Center
07:54PM 37.7628 -82.4222 51° Northeast 413 475 33,000  Level Indianapolis Center
07:55PM 37.8356 -82.3111 50° Northeast 411 473 33,000  Level Indianapolis Center
07:56PM 37.9097 -82.2031 49° Northeast 406 467 33,000  Level Indianapolis Center
07:57PM 37.9897 -82.0792 51° Northeast 409 471 33,000  Level Indianapolis Center
07:58PM 38.0608 -81.9675 51° Northeast 408 470 33,000  Level Indianapolis Center
07:59PM 38.1342 -81.8569 50° Northeast 408 470 33,000  Level Indianapolis Center
08:00PM 38.2047 -81.7456 51° Northeast 407 468 33,000  Level Indianapolis Center
08:01PM 38.2769 -81.6342 50° Northeast 408 470 33,000  Level Indianapolis Center
08:02PM 38.3486 -81.5228 51° Northeast 407 468 33,000  Level Indianapolis Center
08:03PM 38.4331 -81.3886 51° Northeast 407 468 33,000  Level Indianapolis Center
08:04PM 38.5044 -81.2761 51° Northeast 411 473 33,000  Level Indianapolis Center
08:05PM 38.5761 -81.1656 50° Northeast 408 470 33,000  Level Indianapolis Center
08:06PM 38.6475 -81.0531 51° Northeast 409 471 33,000  Level Indianapolis Center
08:07PM 38.7186 -80.9403 51° Northeast 408 470 33,000  Level Indianapolis Center
08:09PM 38.8328 -80.7589 51° Northeast 408 470 33,000  Level Cleveland Center
08:10PM 38.9044 -80.6456 51° Northeast 411 473 33,000  Level Cleveland Center
08:11PM 38.9897 -80.5094 51° Northeast 408 470 33,000  Level Cleveland Center
08:12PM 39.0472 -80.4144 52° Northeast 411 473 33,000  Level Indianapolis Center
08:13PM 39.1189 -80.3000 51° Northeast 411 473 33,000  Level Indianapolis Center
08:14PM 39.1889 -80.1842 52° Northeast 411 473 33,000  Level Indianapolis Center
08:15PM 39.2600 -80.0697 51° Northeast 409 471 33,000  Level Indianapolis Center
08:16PM 39.3311 -79.9533 52° Northeast 410 472 33,000  Level Indianapolis Center
08:17PM 39.4022 -79.8378 51° Northeast 410 472 33,000  Level Indianapolis Center
08:18PM 39.4872 -79.6967 52° Northeast 412 474 33,000  Level Indianapolis Center
08:19PM 39.5697 -79.5675 50° Northeast 417 480 33,000  Level Cleveland Center
08:20PM 39.6394 -79.4519 52° Northeast 411 473 33,000  Level Cleveland Center
08:22PM 39.7244 -79.3100 52° Northeast 416 479 33,000  Level Cleveland Center
08:23PM 39.7944 -79.1917 52° Northeast 418 481 33,000  Level Cleveland Center
08:24PM 39.8650 -79.0758 52° Northeast 413 475 33,000  Level Cleveland Center
08:25PM 39.9375 -78.9514 53° Northeast 413 475 33,000  Level Cleveland Center
08:26PM 40.0075 -78.8350 52° Northeast 411 473 33,000  Level Cleveland Center
08:27PM 40.0772 -78.7161 53° Northeast 414 476 33,000  Level Cleveland Center
08:28PM 40.1597 -78.5767 52° Northeast 411 473 33,000  Level Cleveland Center
08:29PM 40.2289 -78.4586 52° Northeast 410 472 33,000  Level Cleveland Center
08:30PM 40.2986 -78.3400 52° Northeast 413 475 33,000  Level Cleveland Center
08:31PM 40.3678 -78.2208 53° Northeast 414 476 33,000  Level Cleveland Center
08:32PM 40.4247 -78.1194 54° Northeast 409 471 33,000  Level New York Center
08:33PM 40.4967 -77.9986 52° Northeast 409 471 33,000  Level New York Center
08:34PM 40.5958 -77.8283 52° Northeast 416 479 33,000  Level Boston Center
08:35PM 40.6575 -77.7208 53° Northeast 414 476 33,000  Level Cleveland Center
08:36PM 40.7108 -77.6242 54° Northeast 414 476 33,000  Level New York Center
08:37PM 40.7803 -77.5050 52° Northeast 414 476 33,000  Level New York Center
08:38PM 40.8497 -77.3828 53° Northeast 409 471 33,000  Level New York Center
08:39PM 40.9169 -77.2603 54° Northeast 409 471 33,000  Level New York Center
08:40PM 40.9839 -77.1372 54° Northeast 409 471 33,000  Level New York Center
08:41PM 41.0528 -77.0172 53° Northeast 409 471 33,000  Level New York Center
08:42PM 41.1219 -76.8939 53° Northeast 409 471 33,000  Level New York Center
08:43PM 41.1908 -76.7678 54° Northeast 409 471 33,000  Level New York Center
08:44PM 41.2592 -76.6497 52° Northeast 409 471 33,000  Level New York Center
08:45PM 41.3664 -76.4542 54° Northeast 411 473 33,000  Level Boston Center
08:46PM 41.4375 -76.3222 54° Northeast 420 483 33,000  Level Boston Center
08:47PM 41.5064 -76.1939 54° Northeast 417 480 33,000  Level Boston Center
08:48PM 41.5731 -76.0689 54° Northeast 413 475 33,000  Level Boston Center
08:49PM 41.6408 -75.9436 54° Northeast 417 480 33,000  Level Boston Center
08:50PM 41.7081 -75.8186 54° Northeast 415 478 33,000  Level Boston Center
08:51PM 41.7742 -75.6925 55° Northeast 416 479 33,000  Level Boston Center
08:52PM 41.8417 -75.5664 54° Northeast 417 480 33,000  Level Boston Center
08:53PM 41.9075 -75.4386 55° Northeast 418 481 33,000  Level Boston Center
08:54PM 41.9739 -75.3117 55° Northeast 416 479 33,000  Level Boston Center
08:55PM 42.0408 -75.1861 54° Northeast 415 478 33,000  Level Boston Center
08:56PM 42.1014 -75.0411 61° Northeast 417 480 33,000  Level Boston Center
08:57PM 42.1425 -74.8892 70° East 431 496 33,000  Level Boston Center
08:59PM 42.1819 -74.7381 71° East 431 496 33,000 -300 Level Boston Center
09:00PM 42.2214 -74.5867 71° East 430 495 32,400 -1,620 Descending Boston Center
09:01PM 42.2622 -74.4264 71° East 431 496 29,800 -1,680 Descending Boston Center
09:02PM 42.3025 -74.2706 71° East 438 504 29,000 -660 Descending Boston Center
09:03PM 42.3436 -74.1111 71° East 448 516 28,500 -840 Descending Boston Center
09:04PM 42.3839 -73.9547 71° East 442 509 27,400 -1,200 Descending Boston Center
09:05PM 42.4242 -73.7967 71° East 444 511 26,100 -1,260 Descending Boston Center
09:06PM 42.4639 -73.6406 71° East 441 507 24,900 -1,320 Descending Boston Center
09:07PM 42.5100 -73.4575 71° East 430 495 23,500 -1,440 Descending Boston Center
09:08PM 42.5475 -73.3067 71° East 423 487 22,100 -1,440 Descending Boston Center
09:09PM 42.5853 -73.1558 71° East 419 482 20,600 -1,440 Descending Boston Center
09:10PM 42.6222 -73.0067 71° East 412 474 19,200 -1,380 Descending Boston Center
09:11PM 42.6567 -72.8636 72° East 395 455 17,800 -2,160 Descending Boston Center
09:12PM 42.6903 -72.7250 72° East 385 443 14,800 -2,220 Descending Boston Center
09:13PM 42.7250 -72.5856 71° East 389 448 13,400 -1,320 Descending Boston Center
09:14PM 42.7575 -72.4506 72° East 379 436 12,200 -1,140 Descending Boston Center
09:15PM 42.7892 -72.3147 72° East 378 435 11,100 -1,020 Descending Boston Center
09:16PM 42.8047 -72.1769 81° East 363 418 10,200 -1,080 Descending Boston Center
09:17PM 42.8111 -72.0550 86° East 301 346 9,000 -1,500 Descending Boston Center
09:18PM 42.8128 -71.9422 89° East 300 345 7,200 -1,740 Descending Boston Center
09:19PM 42.8131 -71.8319 90° East 292 336 5,500 -1,560 Descending Boston Center
09:20PM 42.8133 -71.7228 90° East 289 333 4,100 -1,260 Descending Boston Center
09:21PM 42.8158 -71.6158 88° East 284 327 3,000 -600 Descending Boston Center
09:22PM 42.8206 -71.5125 86° East 258 297 3,000 -300 Level Boston Center
09:23PM 42.8233 -71.4319 87° East 217 250 2,500 -660 Descending Boston Center
09:24PM 42.8481 -71.3806 57° Northeast 175 201 1,700 -660 Descending Boston Center
09:25PM 42.8817 -71.4028 334° Northwest 136 157 1,200 -660 Descending Boston Center
09:26PM 42.9178 -71.4236 337° Northwest 140 161 400 -780 Descending Boston Center